Time;durP1;ratioP1;P1;durP2;ratioP2;P2;SDS_P1;SDS_P2;PMS_P1;PMS_P2;Temp;Humidity;BMP_temperature;BMP_pressure;BME280_temperature;BME280_humidity;BME280_pressure;Samples;Min_cycle;Max_cycle;Signal;HPM_P1;HPM_P2
2022/01/10 00:02:17;;;;;;;9.48;4.30;;;6.30;99.90;;;;;;4884312;28;20089;-78
2022/01/10 00:04:46;;;;;;;5.95;3.75;;;6.20;99.90;;;;;;4905928;29;20036;-78
2022/01/10 00:07:12;;;;;;;4.50;3.78;;;6.10;99.90;;;;;;4894760;28;20464;-78
2022/01/10 00:09:40;;;;;;;7.85;4.25;;;6.10;99.90;;;;;;4895639;28;20090;-78
2022/01/10 00:12:07;;;;;;;6.03;4.15;;;6.10;99.90;;;;;;4894251;29;20056;-78
2022/01/10 00:14:33;;;;;;;6.32;3.83;;;6.10;99.90;;;;;;4894618;29;20055;-78
2022/01/10 00:17:17;;;;;;;6.32;3.90;;;6.10;99.90;;;;;;4877444;29;20025;-78
2022/01/10 00:19:45;;;;;;;5.97;3.63;;;6.00;99.90;;;;;;4894542;29;20047;-78
2022/01/10 00:22:25;;;;;;;6.03;3.63;;;6.00;99.90;;;;;;4894585;28;20032;-78
2022/01/10 00:24:51;;;;;;;4.10;3.33;;;6.10;99.90;;;;;;4894598;29;20035;-77
2022/01/10 00:27:20;;;;;;;5.82;3.90;;;6.10;99.90;;;;;;4893956;29;20028;-78
2022/01/10 00:29:55;;;;;;;6.40;3.95;;;6.10;99.90;;;;;;4894735;28;20126;-78
2022/01/10 00:32:49;;;;;;;5.75;4.47;;;6.10;99.90;;;;;;4905024;28;20032;-78
2022/01/10 00:35:57;;;;;;;8.85;6.00;;;6.10;99.90;;;;;;4900940;28;20064;-78
2022/01/10 00:39:19;;;;;;;7.28;5.13;;;5.90;99.90;;;;;;4894381;28;20146;-78
2022/01/10 00:42:30;;;;;;;8.83;5.10;;;5.90;99.90;;;;;;4894359;28;20036;-78
2022/01/10 00:45:01;;;;;;;8.85;5.47;;;5.80;99.90;;;;;;4895061;28;20033;-78
2022/01/10 00:48:14;;;;;;;10.52;6.10;;;5.70;99.90;;;;;;4893261;29;20033;-78
2022/01/10 00:54:00;;;;;;;7.70;5.70;;;5.60;99.90;;;;;;4893351;28;20131;-78
2022/01/10 00:57:52;;;;;;;8.32;6.18;;;5.60;99.90;;;;;;4878821;29;20075;-78
2022/01/10 01:04:18;;;;;;;7.80;6.18;;;5.60;99.90;;;;;;4893567;29;20092;-78
2022/01/10 01:07:43;;;;;;;8.50;5.47;;;5.60;99.90;;;;;;4865319;29;20234;-77
2022/01/10 01:25:49;;;;;;;7.55;5.32;;;5.50;99.90;;;;;;4898049;29;20076;-78
2022/01/10 01:28:15;;;;;;;9.77;6.28;;;5.40;99.90;;;;;;4897011;28;20115;-79
2022/01/10 01:32:03;;;;;;;;;;;;;;;;;;;;;
2022/01/10 01:35:06;;;;;;;12.70;6.25;;;5.40;99.90;;;;;;4918145;28;20064;-78
2022/01/10 01:41:47;;;;;;;8.18;6.47;;;5.30;99.90;;;;;;4853485;29;20044;-79
2022/01/10 01:44:28;;;;;;;10.13;6.28;;;5.30;99.90;;;;;;4897879;28;20042;-78
2022/01/10 01:47:04;;;;;;;11.98;6.38;;;5.30;99.90;;;;;;4937017;28;20047;-79
2022/01/10 01:57:23;;;;;;;8.85;5.78;;;5.30;99.90;;;;;;4877470;29;20513;-79
2022/01/10 02:13:46;;;;;;;8.88;6.43;;;5.30;99.90;;;;;;4859070;29;20485;-79
2022/01/10 02:23:47;;;;;;;8.73;6.18;;;5.20;99.90;;;;;;4827564;29;20062;-79
2022/01/10 02:30:34;;;;;;;8.05;5.95;;;5.30;99.90;;;;;;4771127;29;20055;-78
2022/01/10 02:33:50;;;;;;;9.57;6.00;;;5.30;99.90;;;;;;4825331;29;20187;-78
2022/01/10 02:50:12;;;;;;;9.52;6.93;;;5.30;99.90;;;;;;4841157;29;20097;-79
2022/01/10 02:53:30;;;;;;;9.27;6.18;;;5.30;99.90;;;;;;4860710;29;20492;-79
2022/01/10 03:20:47;;;;;;;8.90;5.40;;;5.40;99.90;;;;;;4952019;28;20062;-79
2022/01/10 03:44:52;;;;;;;12.30;7.53;;;5.40;99.90;;;;;;4932321;29;20028;-78
2022/01/10 03:48:04;;;;;;;9.60;5.32;;;5.40;99.90;;;;;;4861476;29;20041;-78
2022/01/10 03:50:41;;;;;;;10.02;5.72;;;5.50;99.90;;;;;;4947859;28;20042;-78
2022/01/10 03:53:07;;;;;;;9.25;4.93;;;5.50;99.90;;;;;;4988023;28;20404;-78
2022/01/10 03:55:40;;;;;;;10.48;5.53;;;5.50;99.90;;;;;;4979245;28;20030;-79
2022/01/10 03:58:08;;;;;;;9.45;5.95;;;5.50;99.90;;;;;;4899269;28;20036;-78
2022/01/10 04:00:37;;;;;;;7.35;5.43;;;5.60;99.90;;;;;;4898721;28;20082;-78
2022/01/10 04:03:24;;;;;;;8.25;5.40;;;5.60;99.90;;;;;;4929333;29;20118;-78
2022/01/10 04:06:12;;;;;;;9.00;5.53;;;5.60;99.90;;;;;;4918309;29;20209;-78
2022/01/10 04:08:44;;;;;;;11.90;6.25;;;5.60;99.90;;;;;;4912478;29;20036;-78
2022/01/10 04:11:30;;;;;;;8.25;5.10;;;5.60;99.90;;;;;;4909056;28;20174;-79
2022/01/10 04:14:17;;;;;;;12.02;7.00;;;5.60;99.90;;;;;;4913072;29;20162;-78
2022/01/10 04:16:50;;;;;;;9.63;6.20;;;5.50;99.90;;;;;;4913839;28;20027;-79
2022/01/10 04:19:18;;;;;;;7.38;5.65;;;5.50;99.90;;;;;;4928016;29;20024;-78
2022/01/10 04:21:50;;;;;;;12.77;6.20;;;5.50;99.90;;;;;;4910500;28;20028;-78
2022/01/10 04:24:21;;;;;;;8.85;5.88;;;5.50;99.90;;;;;;4912990;29;20071;-78
2022/01/10 04:30:10;;;;;;;6.13;4.25;;;5.50;99.90;;;;;;4913465;29;20055;-78
2022/01/10 04:33:02;;;;;;;7.40;4.85;;;5.40;99.90;;;;;;4912428;29;20029;-78
2022/01/10 04:35:39;;;;;;;6.38;5.03;;;5.40;99.90;;;;;;4913099;29;20051;-78
2022/01/10 04:38:12;;;;;;;11.27;6.32;;;5.50;99.90;;;;;;4893842;28;20576;-78
2022/01/10 04:40:46;;;;;;;8.10;5.80;;;5.50;99.90;;;;;;4918193;29;20031;-78
2022/01/10 04:43:18;;;;;;;7.75;5.20;;;5.50;99.90;;;;;;4911593;29;20032;-79
2022/01/10 04:45:50;;;;;;;8.30;5.72;;;5.50;99.90;;;;;;4918555;29;20028;-78
2022/01/10 04:55:02;;;;;;;8.18;5.63;;;5.50;99.90;;;;;;4921145;28;20086;-78
2022/01/10 04:57:45;;;;;;;8.75;5.70;;;5.50;99.90;;;;;;4895569;29;20050;-78
2022/01/10 05:00:14;;;;;;;7.65;4.60;;;5.50;99.90;;;;;;4896364;29;20082;-78
2022/01/10 05:09:19;;;;;;;8.13;5.18;;;5.50;99.90;;;;;;4912130;29;20067;-78
2022/01/10 05:11:51;;;;;;;9.57;5.10;;;5.50;99.90;;;;;;4909142;29;20027;-78
2022/01/10 05:14:20;;;;;;;7.70;4.78;;;5.40;99.90;;;;;;4929484;29;20103;-78
2022/01/10 05:16:55;;;;;;;9.75;5.70;;;5.50;99.90;;;;;;4901986;28;20031;-78
2022/01/10 05:19:24;;;;;;;11.77;6.07;;;5.60;99.90;;;;;;4926556;28;20043;-78
2022/01/10 05:21:50;;;;;;;7.63;4.85;;;5.60;99.90;;;;;;4895269;29;20032;-78
2022/01/10 05:24:17;;;;;;;6.63;4.53;;;5.60;99.90;;;;;;4912366;29;20039;-78
2022/01/10 05:26:43;;;;;;;7.47;3.95;;;5.60;99.90;;;;;;4923642;29;20027;-78
2022/01/10 05:29:16;;;;;;;6.95;4.78;;;5.70;99.90;;;;;;4912244;29;20032;-78
2022/01/10 05:31:44;;;;;;;;;;;5.60;99.90;;;;;;4912931;29;20028;-79
2022/01/10 05:34:11;;;;;;;11.02;5.53;;;5.60;99.90;;;;;;4912034;29;19978;-79
2022/01/10 05:36:46;;;;;;;7.32;4.80;;;5.60;99.90;;;;;;4929014;29;20027;-78
2022/01/10 05:39:12;;;;;;;7.40;4.85;;;5.60;99.90;;;;;;4910650;28;20052;-79
2022/01/10 05:41:46;;;;;;;5.30;4.30;;;5.60;99.90;;;;;;4912597;29;20360;-78
2022/01/10 05:44:14;;;;;;;5.85;4.45;;;5.60;99.90;;;;;;4912142;29;20024;-79
2022/01/10 05:46:47;;;;;;;8.88;4.75;;;5.60;99.90;;;;;;4895399;29;20119;-78
2022/01/10 05:49:15;;;;;;;6.03;4.22;;;5.60;99.90;;;;;;4911837;29;20038;-79
2022/01/10 05:51:41;;;;;;;8.18;4.50;;;5.50;99.90;;;;;;4912117;29;20129;-79
2022/01/10 05:54:38;;;;;;;;;;;;;;;;;;;;;
2022/01/10 05:57:09;;;;;;;9.73;5.28;;;5.60;99.90;;;;;;4933737;29;20043;-78
2022/01/10 05:59:37;;;;;;;8.15;4.20;;;5.60;99.90;;;;;;4927705;29;20025;-78
2022/01/10 06:02:16;;;;;;;5.80;4.28;;;5.60;99.90;;;;;;4915041;29;20136;-78
2022/01/10 06:04:45;;;;;;;6.88;4.47;;;5.60;99.90;;;;;;4915324;29;20029;-78
2022/01/10 06:07:14;;;;;;;7.53;4.15;;;5.70;99.90;;;;;;4898321;29;20040;-78
2022/01/10 06:09:58;;;;;;;9.85;4.45;;;5.60;99.90;;;;;;4914995;29;20055;-78
2022/01/10 06:12:27;;;;;;;5.03;3.05;;;5.60;99.90;;;;;;4925891;29;20514;-78
2022/01/10 06:14:53;;;;;;;6.57;4.82;;;5.60;99.90;;;;;;4925511;28;20131;-78
2022/01/10 06:17:19;;;;;;;7.72;4.30;;;5.60;99.90;;;;;;4897657;29;20111;-78
2022/01/10 06:19:47;;;;;;;7.18;5.00;;;5.70;99.90;;;;;;4915080;29;20062;-78
2022/01/10 06:22:52;;;;;;;7.20;4.55;;;5.70;99.90;;;;;;4907882;29;20059;-78
2022/01/10 06:25:31;;;;;;;8.23;4.95;;;5.80;99.90;;;;;;4920163;29;20446;-77
2022/01/10 06:28:20;;;;;;;6.28;4.10;;;5.80;99.90;;;;;;4932630;29;20032;-78
2022/01/10 06:31:16;;;;;;;5.10;4.15;;;5.90;99.90;;;;;;4918269;29;20068;-78
2022/01/10 06:33:43;;;;;;;6.43;4.15;;;5.90;99.90;;;;;;4880701;29;20033;-78
2022/01/10 06:36:09;;;;;;;10.40;5.00;;;5.90;99.90;;;;;;4907793;29;20547;-78
2022/01/10 06:38:44;;;;;;;10.45;4.60;;;5.80;99.90;;;;;;4932851;28;20124;-78
2022/01/10 06:41:10;;;;;;;7.00;4.13;;;5.80;99.90;;;;;;4915065;29;20368;-78
2022/01/10 06:43:39;;;;;;;7.43;4.30;;;5.90;99.90;;;;;;4913771;29;20035;-77
2022/01/10 06:46:08;;;;;;;7.78;5.10;;;5.90;99.90;;;;;;4915425;29;20219;-78
2022/01/10 06:48:51;;;;;;;6.25;5.05;;;5.90;99.90;;;;;;4913701;29;20509;-78
2022/01/10 06:51:23;;;;;;;10.13;5.22;;;5.80;99.90;;;;;;4930670;29;20032;-78
2022/01/10 06:54:11;;;;;;;8.18;5.22;;;5.80;99.90;;;;;;4932542;29;20121;-79
2022/01/10 06:56:53;;;;;;;8.23;5.43;;;5.80;99.90;;;;;;4920738;29;20585;-79
2022/01/10 06:59:51;;;;;;;7.93;4.78;;;5.80;99.90;;;;;;4914589;29;20197;-78
2022/01/10 07:02:25;;;;;;;8.02;4.70;;;5.70;99.90;;;;;;4900136;28;20502;-79
2022/01/10 07:04:51;;;;;;;10.13;5.03;;;5.80;99.90;;;;;;4930246;29;20158;-79
2022/01/10 07:07:20;;;;;;;13.43;5.20;;;5.70;99.90;;;;;;4913215;29;20107;-78
2022/01/10 07:09:46;;;;;;;6.57;4.03;;;5.70;99.90;;;;;;4914315;29;20425;-79
2022/01/10 07:12:12;;;;;;;8.75;5.10;;;5.70;99.90;;;;;;4913975;29;20437;-80
2022/01/10 07:15:06;;;;;;;8.63;5.20;;;5.70;99.90;;;;;;4897554;29;20047;-79
2022/01/10 07:17:37;;;;;;;8.43;5.15;;;5.70;99.90;;;;;;4926061;29;20055;-81
2022/01/10 07:20:07;;;;;;;9.23;4.97;;;5.70;99.90;;;;;;4906265;28;20510;-78
2022/01/10 07:22:54;;;;;;;6.72;4.40;;;5.80;99.90;;;;;;4913447;29;20323;-78
2022/01/10 07:25:29;;;;;;;10.73;4.03;;;5.80;99.90;;;;;;4897534;28;20169;-80
2022/01/10 07:27:55;;;;;;;9.77;5.15;;;5.80;99.90;;;;;;4913497;29;20043;-79
2022/01/10 07:30:37;;;;;;;5.72;4.15;;;5.80;99.90;;;;;;4897467;29;20048;-79
2022/01/10 07:33:06;;;;;;;9.85;5.18;;;5.90;99.90;;;;;;4896515;29;20033;-79
2022/01/10 07:35:34;;;;;;;10.45;4.72;;;5.90;99.90;;;;;;4897466;29;20032;-79
2022/01/10 07:38:00;;;;;;;7.68;4.97;;;5.90;99.90;;;;;;4896278;29;20105;-79
2022/01/10 07:40:26;;;;;;;6.80;3.95;;;6.00;99.90;;;;;;4914330;29;20481;-79
2022/01/10 07:42:52;;;;;;;9.00;5.05;;;6.00;99.90;;;;;;4913349;29;20021;-79
2022/01/10 07:45:19;;;;;;;9.13;4.60;;;6.00;99.90;;;;;;4914249;29;20043;-79
2022/01/10 07:47:51;;;;;;;8.68;4.95;;;6.10;99.90;;;;;;4896387;29;20094;-79
2022/01/10 07:50:17;;;;;;;6.28;4.30;;;6.10;99.90;;;;;;4913884;29;20048;-79
2022/01/10 07:52:46;;;;;;;7.43;4.35;;;6.10;99.90;;;;;;4913251;29;20391;-79
2022/01/10 07:55:16;;;;;;;7.85;4.90;;;6.10;99.90;;;;;;4914066;29;20032;-79
2022/01/10 07:57:42;;;;;;;11.20;4.88;;;6.10;99.90;;;;;;4896330;28;20028;-79
2022/01/10 08:00:12;;;;;;;6.70;4.63;;;6.20;99.90;;;;;;4913817;29;20139;-79
2022/01/10 08:02:47;;;;;;;7.80;4.55;;;6.20;99.90;;;;;;4912964;29;20094;-79
2022/01/10 08:05:13;;;;;;;7.15;4.07;;;6.20;99.90;;;;;;4913970;29;20028;-79
2022/01/10 08:07:41;;;;;;;6.60;4.43;;;6.30;99.90;;;;;;4915915;29;20031;-79
2022/01/10 08:10:08;;;;;;;7.38;4.25;;;6.30;99.90;;;;;;4905058;28;20079;-79
2022/01/10 08:12:34;;;;;;;8.48;4.85;;;6.30;99.90;;;;;;4912804;29;20028;-77
2022/01/10 08:15:00;;;;;;;9.68;4.63;;;6.30;99.90;;;;;;4913733;29;20043;-79
2022/01/10 08:17:31;;;;;;;17.92;5.15;;;6.40;99.90;;;;;;4895895;29;20048;-79
2022/01/10 08:19:58;;;;;;;6.35;3.80;;;6.40;99.90;;;;;;4913829;29;20523;-78
2022/01/10 08:22:23;;;;;;;9.10;5.13;;;6.50;99.90;;;;;;4912736;29;20043;-79
2022/01/10 08:24:51;;;;;;;8.05;4.82;;;6.50;99.90;;;;;;4913305;29;20032;-78
2022/01/10 08:27:23;;;;;;;10.38;4.60;;;6.50;99.90;;;;;;4906813;28;20031;-79
2022/01/10 08:29:59;;;;;;;9.30;5.15;;;6.60;99.90;;;;;;4994614;28;20048;-79
2022/01/10 08:32:25;;;;;;;8.27;5.10;;;6.60;99.90;;;;;;4903945;29;20039;-79
2022/01/10 08:34:57;;;;;;;15.95;5.28;;;6.70;99.90;;;;;;4896372;29;20123;-79
2022/01/10 08:37:26;;;;;;;6.38;5.22;;;6.70;99.90;;;;;;4913239;28;20048;-79
2022/01/10 08:39:52;;;;;;;10.23;4.75;;;6.70;99.90;;;;;;4923629;29;20040;-78
2022/01/10 08:42:19;;;;;;;5.75;3.92;;;6.80;99.90;;;;;;4895783;29;20086;-79
2022/01/10 08:44:48;;;;;;;7.30;4.63;;;6.90;99.90;;;;;;4896302;29;20495;-79
2022/01/10 08:47:18;;;;;;;7.07;4.70;;;6.90;99.90;;;;;;4903543;28;20077;-78
2022/01/10 08:49:50;;;;;;;8.95;5.55;;;7.00;99.90;;;;;;4912938;29;20098;-79
2022/01/10 08:52:17;;;;;;;10.07;4.70;;;7.10;99.90;;;;;;4933979;28;20039;-79
2022/01/10 08:54:48;;;;;;;9.07;4.70;;;7.20;99.90;;;;;;4912983;29;20079;-79
2022/01/10 08:57:14;;;;;;;5.60;4.03;;;7.20;99.90;;;;;;4913432;28;20062;-79
2022/01/10 08:59:40;;;;;;;9.68;5.25;;;7.30;99.90;;;;;;4907713;28;20083;-79
2022/01/10 09:02:07;;;;;;;12.10;4.10;;;7.30;99.90;;;;;;4908601;29;20032;-79
2022/01/10 09:04:33;;;;;;;9.70;5.03;;;7.30;99.90;;;;;;4938714;28;20032;-79
2022/01/10 09:07:00;;;;;;;6.18;4.75;;;7.30;99.90;;;;;;4904732;29;20031;-79
2022/01/10 09:09:26;;;;;;;7.93;5.20;;;7.30;99.90;;;;;;4926280;29;20028;-79
2022/01/10 09:11:52;;;;;;;8.13;4.63;;;7.30;99.90;;;;;;4895111;29;20525;-78
2022/01/10 09:14:19;;;;;;;7.60;3.78;;;7.30;99.90;;;;;;4912938;29;20031;-79
2022/01/10 09:16:48;;;;;;;7.43;4.43;;;7.10;99.90;;;;;;4916275;29;20020;-79
2022/01/10 09:19:14;;;;;;;6.57;4.32;;;7.10;99.90;;;;;;4896783;29;20043;-78
2022/01/10 09:21:40;;;;;;;8.30;4.93;;;7.00;99.90;;;;;;4912287;28;20024;-79
2022/01/10 09:24:12;;;;;;;8.93;4.93;;;7.10;99.90;;;;;;4927829;29;20034;-79
2022/01/10 09:26:42;;;;;;;9.13;4.20;;;7.00;99.90;;;;;;4922194;29;20019;-78
2022/01/10 09:29:11;;;;;;;8.57;5.20;;;7.00;99.90;;;;;;4928223;29;20526;-79
2022/01/10 09:31:37;;;;;;;10.52;5.43;;;7.00;99.90;;;;;;4915681;29;20063;-79
2022/01/10 09:34:02;;;;;;;8.70;5.80;;;7.10;99.90;;;;;;4915299;29;20059;-79
2022/01/10 09:36:53;;;;;;;7.78;5.45;;;7.20;99.90;;;;;;4898378;28;20036;-79
2022/01/10 09:39:19;;;;;;;11.75;5.88;;;7.20;99.90;;;;;;4914758;28;20066;-79
2022/01/10 09:41:49;;;;;;;8.43;5.60;;;7.30;99.90;;;;;;4912526;28;20024;-79
2022/01/10 09:44:16;;;;;;;8.93;4.88;;;7.40;99.90;;;;;;4930363;29;20651;-78
2022/01/10 09:46:51;;;;;;;12.05;5.57;;;7.40;99.90;;;;;;4932608;29;20479;-79
2022/01/10 09:49:21;;;;;;;9.15;5.47;;;7.40;99.90;;;;;;4929693;29;20063;-79
2022/01/10 09:51:50;;;;;;;6.95;5.20;;;7.40;99.90;;;;;;4901807;28;20038;-77
2022/01/10 09:54:17;;;;;;;10.43;5.80;;;7.40;99.90;;;;;;4915127;29;20468;-79
2022/01/10 09:56:47;;;;;;;6.78;5.28;;;7.50;99.90;;;;;;4932493;29;20028;-79
2022/01/10 09:59:14;;;;;;;13.63;5.95;;;7.60;99.90;;;;;;4930391;29;20036;-79
2022/01/10 10:01:43;;;;;;;9.90;5.00;;;7.70;99.90;;;;;;4898014;29;20035;-79
2022/01/10 10:04:11;;;;;;;7.63;5.25;;;7.80;99.90;;;;;;4915005;29;20535;-80
2022/01/10 10:06:37;;;;;;;7.30;5.07;;;7.80;99.90;;;;;;4915241;29;20025;-79
2022/01/10 10:09:06;;;;;;;8.27;5.50;;;7.80;99.90;;;;;;4914581;29;20047;-79
2022/01/10 10:11:44;;;;;;;10.57;6.10;;;7.90;99.90;;;;;;4914834;29;20484;-79
2022/01/10 10:14:18;;;;;;;11.80;5.43;;;7.90;99.90;;;;;;4914951;29;20028;-79
2022/01/10 10:17:07;;;;;;;9.32;5.88;;;8.00;99.90;;;;;;4932309;29;20055;-79
2022/01/10 10:19:33;;;;;;;13.25;5.60;;;8.00;99.90;;;;;;4910506;28;20040;-79
2022/01/10 10:22:00;;;;;;;8.13;4.22;;;8.10;99.90;;;;;;4914814;29;20036;-79
2022/01/10 10:24:29;;;;;;;10.23;5.30;;;8.00;99.90;;;;;;4898208;29;20024;-79
2022/01/10 10:26:57;;;;;;;13.48;5.85;;;8.00;99.90;;;;;;4914914;29;20028;-79
2022/01/10 10:29:38;;;;;;;7.85;5.43;;;8.00;99.90;;;;;;4897557;29;20423;-79
2022/01/10 10:32:05;;;;;;;7.40;5.28;;;8.10;99.90;;;;;;4914263;29;20578;-79
2022/01/10 10:34:33;;;;;;;9.10;5.45;;;8.20;99.90;;;;;;4914900;29;20048;-79
2022/01/10 10:37:14;;;;;;;12.00;6.43;;;8.30;99.90;;;;;;4914538;28;20491;-79
2022/01/10 10:39:42;;;;;;;8.20;5.30;;;8.30;99.90;;;;;;4897420;29;20040;-79
2022/01/10 10:42:12;;;;;;;10.23;5.40;;;8.50;99.90;;;;;;4913319;29;20017;-79
2022/01/10 10:44:43;;;;;;;9.63;5.18;;;8.60;99.90;;;;;;4914617;29;20051;-79
2022/01/10 10:47:11;;;;;;;8.13;5.55;;;8.60;99.90;;;;;;4914409;29;20024;-79
2022/01/10 10:49:40;;;;;;;8.40;5.13;;;8.70;99.90;;;;;;4924064;29;20071;-79
2022/01/10 10:52:09;;;;;;;10.75;6.72;;;8.80;99.90;;;;;;4914333;29;20031;-79
2022/01/10 10:54:36;;;;;;;8.95;4.95;;;8.90;99.90;;;;;;4914296;29;20034;-79
2022/01/10 10:57:17;;;;;;;12.75;5.30;;;8.90;99.90;;;;;;4914232;29;20607;-79
2022/01/10 10:59:45;;;;;;;11.60;6.05;;;9.10;99.90;;;;;;4914294;29;20032;-79
2022/01/10 11:02:12;;;;;;;8.43;5.63;;;9.20;99.70;;;;;;4914174;29;20093;-79
2022/01/10 11:04:38;;;;;;;9.05;5.03;;;9.20;99.20;;;;;;4914325;29;20044;-79
2022/01/10 11:07:04;;;;;;;8.05;5.10;;;9.10;98.50;;;;;;4897050;29;20048;-79
2022/01/10 11:09:31;;;;;;;11.10;5.90;;;9.10;99.20;;;;;;4913877;29;20047;-78
2022/01/10 11:12:00;;;;;;;17.75;6.22;;;9.20;99.20;;;;;;4913902;29;20038;-79
2022/01/10 11:14:26;;;;;;;7.57;5.43;;;9.10;97.90;;;;;;4897665;29;20159;-79
2022/01/10 11:16:54;;;;;;;10.82;5.53;;;9.10;99.00;;;;;;4928806;29;20051;-79
2022/01/10 11:19:26;;;;;;;8.95;5.55;;;9.20;98.40;;;;;;4928742;29;20024;-79
2022/01/10 11:22:25;;;;;;;7.75;5.70;;;9.30;97.60;;;;;;4913406;29;20044;-79
2022/01/10 11:25:06;;;;;;;9.90;5.85;;;9.30;97.10;;;;;;4940469;28;20079;-79
2022/01/10 11:27:43;;;;;;;6.95;5.57;;;9.30;98.00;;;;;;4920476;28;20506;-79
2022/01/10 11:31:03;;;;;;;10.85;5.90;;;9.40;97.00;;;;;;4913933;29;20044;-79
2022/01/10 11:33:42;;;;;;;11.18;5.50;;;9.40;96.70;;;;;;4892679;29;20040;-79
2022/01/10 11:36:10;;;;;;;8.20;5.47;;;9.40;96.20;;;;;;4897792;28;20135;-80
2022/01/10 11:38:37;;;;;;;8.35;5.20;;;9.40;96.70;;;;;;4913177;28;20527;-78
2022/01/10 11:41:26;;;;;;;9.70;5.40;;;9.40;96.70;;;;;;4914013;29;20040;-80
2022/01/10 11:44:03;;;;;;;9.40;6.00;;;9.20;96.70;;;;;;4896183;29;20357;-79
2022/01/10 11:46:42;;;;;;;8.95;5.13;;;9.30;96.90;;;;;;4909944;28;20036;-78
2022/01/10 11:49:20;;;;;;;7.32;5.55;;;9.20;96.90;;;;;;4896476;28;20067;-79
2022/01/10 11:52:01;;;;;;;11.23;5.70;;;9.20;96.50;;;;;;4927005;29;20081;-79
2022/01/10 11:54:35;;;;;;;6.97;5.10;;;9.40;96.70;;;;;;4910128;29;20024;-80
2022/01/10 11:57:26;;;;;;;11.50;6.55;;;9.50;96.50;;;;;;4929532;29;20063;-79
2022/01/10 11:59:56;;;;;;;11.80;6.10;;;9.50;97.10;;;;;;4924189;29;20044;-79
2022/01/10 12:02:25;;;;;;;10.50;5.28;;;9.70;95.70;;;;;;4912516;29;20072;-79
2022/01/10 12:05:00;;;;;;;8.82;6.20;;;9.40;96.10;;;;;;4897025;29;20040;-79
2022/01/10 12:07:29;;;;;;;7.03;4.85;;;9.40;96.30;;;;;;4912928;29;20086;-79
2022/01/10 12:09:59;;;;;;;9.43;6.07;;;9.50;96.30;;;;;;4913316;29;20040;-79
2022/01/10 12:12:25;;;;;;;11.40;5.85;;;9.50;95.60;;;;;;4912465;29;20382;-79
2022/01/10 12:14:55;;;;;;;9.02;5.13;;;9.50;96.00;;;;;;4896741;29;20028;-79
2022/01/10 12:17:21;;;;;;;6.90;4.90;;;9.60;96.30;;;;;;4912960;29;20028;-79
2022/01/10 12:19:57;;;;;;;7.25;4.78;;;9.80;95.10;;;;;;4913156;29;20115;-78
2022/01/10 12:22:29;;;;;;;8.02;4.75;;;9.70;95.30;;;;;;4912369;29;20043;-79
2022/01/10 12:24:55;;;;;;;8.43;4.60;;;9.70;95.70;;;;;;4916132;29;20033;-79
2022/01/10 12:27:22;;;;;;;9.00;5.10;;;9.70;95.90;;;;;;4912629;29;20074;-79
2022/01/10 12:29:50;;;;;;;8.13;5.63;;;9.70;94.90;;;;;;4913232;29;20068;-79
2022/01/10 12:32:23;;;;;;;7.07;4.95;;;10.20;94.70;;;;;;4930343;28;20020;-79
2022/01/10 12:34:49;;;;;;;8.45;4.55;;;10.60;92.70;;;;;;4923969;29;20095;-79
2022/01/10 12:37:16;;;;;;;8.75;6.13;;;11.20;91.60;;;;;;4930479;28;20032;-79
2022/01/10 12:39:41;;;;;;;10.52;4.47;;;11.80;91.10;;;;;;4907511;29;20044;-79
2022/01/10 12:42:12;;;;;;;15.40;6.50;;;13.10;90.20;;;;;;4929481;29;20070;-79
2022/01/10 12:44:43;;;;;;;8.07;5.07;;;13.90;86.50;;;;;;4925042;29;20082;-79
2022/01/10 12:47:12;;;;;;;6.07;4.65;;;15.20;80.80;;;;;;4912567;29;20091;-79
2022/01/10 12:49:41;;;;;;;10.48;5.45;;;15.10;79.20;;;;;;4917052;29;20039;-79
2022/01/10 12:52:10;;;;;;;8.88;3.95;;;15.80;74.90;;;;;;4930663;29;20016;-80
2022/01/10 12:54:36;;;;;;;5.80;4.18;;;15.10;73.80;;;;;;4924934;29;20044;-79
2022/01/10 12:57:03;;;;;;;7.40;4.53;;;14.10;73.50;;;;;;4912484;29;20028;-80
2022/01/10 12:59:31;;;;;;;7.70;4.25;;;13.60;76.40;;;;;;4912865;29;20020;-79
2022/01/10 13:02:00;;;;;;;4.95;3.25;;;13.40;76.30;;;;;;4912263;29;20414;-79
2022/01/10 13:04:31;;;;;;;5.65;3.20;;;14.80;74.00;;;;;;4912732;29;20479;-80
2022/01/10 13:07:07;;;;;;;6.05;3.80;;;15.40;69.60;;;;;;4915975;29;20078;-79
2022/01/10 13:09:38;;;;;;;3.95;3.55;;;15.90;68.50;;;;;;4916062;29;20510;-80
2022/01/10 13:12:25;;;;;;;4.90;3.03;;;16.70;67.10;;;;;;4915541;29;20056;-80
2022/01/10 13:14:50;;;;;;;4.82;3.40;;;17.40;64.70;;;;;;4916335;28;20040;-79
2022/01/10 13:17:24;;;;;;;5.97;4.38;;;17.20;63.60;;;;;;4915786;29;20028;-80
2022/01/10 13:20:06;;;;;;;5.80;4.07;;;16.30;65.30;;;;;;4921453;29;20039;-80
2022/01/10 13:22:42;;;;;;;5.80;4.22;;;16.20;65.80;;;;;;4898468;28;20028;-80
2022/01/10 13:25:13;;;;;;;6.30;3.92;;;17.00;63.70;;;;;;4918194;29;20066;-80
2022/01/10 13:27:48;;;;;;;5.45;3.83;;;17.30;62.70;;;;;;4926815;29;20394;-80
2022/01/10 13:30:26;;;;;;;6.07;4.03;;;17.20;63.40;;;;;;4931776;29;20038;-80
2022/01/10 13:32:54;;;;;;;7.82;4.20;;;18.10;61.50;;;;;;4918857;29;20052;-80
2022/01/10 13:35:21;;;;;;;5.30;4.07;;;18.20;58.90;;;;;;4898811;29;20399;-80
2022/01/10 13:37:59;;;;;;;6.32;3.75;;;18.10;59.30;;;;;;4915021;28;20036;-80
2022/01/10 13:40:38;;;;;;;7.10;3.97;;;17.30;60.70;;;;;;4915934;29;20033;-80
2022/01/10 13:43:10;;;;;;;6.82;4.88;;;17.50;59.90;;;;;;4914939;29;20032;-80
2022/01/10 13:45:40;;;;;;;11.18;5.57;;;17.90;58.10;;;;;;4915739;29;20035;-82
2022/01/10 13:48:11;;;;;;;6.57;3.60;;;17.90;59.00;;;;;;4914813;29;20028;-81
2022/01/10 13:50:44;;;;;;;8.07;4.93;;;17.70;57.90;;;;;;4915720;29;20044;-80
2022/01/10 13:53:18;;;;;;;5.75;3.60;;;18.20;58.30;;;;;;4914988;29;20020;-80
2022/01/10 13:56:04;;;;;;;6.53;3.72;;;18.50;56.50;;;;;;4915568;29;20082;-80
2022/01/10 13:58:44;;;;;;;6.60;4.00;;;17.40;59.10;;;;;;4914494;29;20028;-79
2022/01/10 14:01:30;;;;;;;5.13;4.00;;;16.60;60.50;;;;;;4915773;29;20078;-79
2022/01/10 14:03:57;;;;;;;7.68;4.55;;;16.80;60.40;;;;;;4914811;29;20034;-79
2022/01/10 14:06:27;;;;;;;5.65;4.00;;;17.10;60.10;;;;;;4915021;29;20032;-80
2022/01/10 14:08:58;;;;;;;9.30;3.72;;;17.70;59.10;;;;;;4914430;29;20578;-79
2022/01/10 14:11:27;;;;;;;6.32;3.78;;;18.20;57.90;;;;;;4915344;29;20111;-79
2022/01/10 14:14:00;;;;;;;4.78;3.50;;;17.20;58.80;;;;;;4914656;29;20391;-79
2022/01/10 14:16:34;;;;;;;4.45;3.20;;;17.00;59.10;;;;;;4914636;29;20028;-80
2022/01/10 14:19:02;;;;;;;6.97;3.80;;;16.40;59.60;;;;;;4914636;29;20403;-79
2022/01/10 14:21:28;;;;;;;9.27;4.88;;;16.50;60.70;;;;;;4925955;29;20479;-80
2022/01/10 14:24:05;;;;;;;6.75;3.60;;;15.80;60.40;;;;;;4914549;29;20372;-80
2022/01/10 14:26:38;;;;;;;7.05;4.60;;;15.90;61.70;;;;;;4914385;29;20391;-79
2022/01/10 14:29:10;;;;;;;13.80;7.50;;;14.70;62.70;;;;;;4914936;29;20032;-80
2022/01/10 14:31:48;;;;;;;5.55;4.13;;;14.30;64.70;;;;;;4914745;29;20418;-80
2022/01/10 14:34:16;;;;;;;19.98;10.50;;;13.50;66.50;;;;;;4916519;29;20098;-80
2022/01/10 14:36:41;;;;;;;10.05;4.93;;;12.50;69.10;;;;;;4914678;28;20038;-80
2022/01/10 14:39:10;;;;;;;16.58;9.20;;;11.50;70.80;;;;;;4931258;28;20515;-80
2022/01/10 14:41:36;;;;;;;9.65;5.07;;;11.00;73.50;;;;;;4931783;29;20058;-79
2022/01/10 14:44:05;;;;;;;8.45;4.90;;;10.70;74.50;;;;;;4931178;29;20622;-79
2022/01/10 14:46:37;;;;;;;5.47;3.83;;;10.20;75.50;;;;;;4913045;29;20437;-79
2022/01/10 14:49:04;;;;;;;6.38;3.88;;;10.10;76.50;;;;;;4931417;29;20063;-79
2022/01/10 14:51:29;;;;;;;5.88;3.65;;;10.10;77.00;;;;;;4914446;29;20040;-80
2022/01/10 14:53:55;;;;;;;11.75;4.68;;;10.00;77.10;;;;;;4914256;29;20364;-80
2022/01/10 14:56:34;;;;;;;9.07;4.78;;;9.80;78.40;;;;;;4922742;28;20029;-80
2022/01/10 14:59:03;;;;;;;9.32;4.50;;;9.80;78.80;;;;;;4913895;29;20031;-79
2022/01/10 15:01:32;;;;;;;9.57;4.70;;;9.50;80.10;;;;;;4919743;29;20032;-79
2022/01/10 15:03:59;;;;;;;8.98;5.25;;;9.10;81.80;;;;;;4914066;29;20028;-80
2022/01/10 15:06:25;;;;;;;11.13;5.53;;;8.90;82.60;;;;;;4897570;29;20376;-79
2022/01/10 15:08:51;;;;;;;6.40;4.25;;;8.90;83.10;;;;;;4896131;29;20475;-79
2022/01/10 15:11:18;;;;;;;6.90;4.97;;;8.60;84.00;;;;;;4914499;29;20051;-79
2022/01/10 15:13:50;;;;;;;7.45;4.55;;;8.50;84.80;;;;;;4913566;29;20017;-80
2022/01/10 15:16:17;;;;;;;8.43;4.68;;;8.50;85.50;;;;;;4930520;29;20035;-79
2022/01/10 15:18:44;;;;;;;7.38;5.00;;;8.20;85.70;;;;;;4931866;29;20081;-79
2022/01/10 15:21:13;;;;;;;8.23;5.20;;;8.20;87.50;;;;;;4914769;29;20032;-80
2022/01/10 15:23:47;;;;;;;6.78;4.60;;;8.20;87.90;;;;;;4896279;29;20039;-79
2022/01/10 15:26:15;;;;;;;9.68;4.72;;;8.10;88.20;;;;;;4924144;29;20458;-79
2022/01/10 15:28:42;;;;;;;8.95;5.15;;;8.10;88.80;;;;;;4931320;29;20031;-80
2022/01/10 15:31:11;;;;;;;13.48;5.45;;;8.00;89.70;;;;;;4912306;29;20042;-80
2022/01/10 15:33:37;;;;;;;11.45;6.22;;;7.80;90.20;;;;;;4932355;29;20036;-80
2022/01/10 15:36:05;;;;;;;8.23;5.40;;;7.70;90.70;;;;;;4915427;29;20442;-79
2022/01/10 15:38:32;;;;;;;14.82;7.18;;;7.60;91.10;;;;;;4895708;28;20665;-79
2022/01/10 15:41:01;;;;;;;11.40;6.03;;;7.50;91.30;;;;;;4914653;29;20128;-80
2022/01/10 15:43:28;;;;;;;12.07;5.88;;;7.50;91.50;;;;;;4932325;29;20031;-79
2022/01/10 15:45:54;;;;;;;10.02;5.80;;;7.50;91.90;;;;;;4923659;29;20023;-80